Time;durP1;ratioP1;P1;durP2;ratioP2;P2;SDS_P1;SDS_P2;PMS_P1;PMS_P2;Temp;Humidity;BMP_temperature;BMP_pressure;BME280_temperature;BME280_humidity;BME280_pressure;Samples;Min_cycle;Max_cycle;Signal;HPM_P1;HPM_P2
2023/06/15 00:02:27;;;;;;;0.00;0.00;;;;;;;13.65;72.20;99470.19;5075005;28;20138;-64
2023/06/15 00:04:55;;;;;;;0.17;0.17;;;;;;;13.70;72.21;99474.81;5081186;28;20105;-64
2023/06/15 00:07:24;;;;;;;0.00;0.00;;;;;;;13.65;72.32;99472.88;5073684;28;20148;-64
2023/06/15 00:09:52;;;;;;;0.10;0.10;;;;;;;13.63;71.91;99463.44;5081661;28;20135;-64
2023/06/15 00:12:20;;;;;;;0.10;0.10;;;;;;;13.59;72.37;99476.63;5081696;28;20149;-64
2023/06/15 00:14:47;;;;;;;0.10;0.10;;;;;;;13.59;72.71;99474.72;5070559;28;20447;-64
2023/06/15 00:17:14;;;;;;;0.10;0.10;;;;;;;13.60;72.87;99475.53;5071548;28;20048;-64
2023/06/15 00:19:44;;;;;;;0.10;0.10;;;;;;;13.51;72.99;99472.50;5071091;28;20626;-64
2023/06/15 00:22:14;;;;;;;0.00;0.00;;;;;;;13.34;74.07;99471.81;5083634;28;20046;-65
2023/06/15 00:24:45;;;;;;;0.10;0.10;;;;;;;13.35;73.71;99466.19;5074163;28;20044;-64
2023/06/15 00:27:13;;;;;;;0.00;0.00;;;;;;;13.31;73.98;99483.09;5076299;28;20060;-64
2023/06/15 00:29:41;;;;;;;0.03;0.03;;;;;;;13.33;74.31;99483.66;5078687;28;20390;-64
2023/06/15 00:32:08;;;;;;;0.00;0.00;;;;;;;13.29;74.00;99479.84;5077913;28;20052;-64
2023/06/15 00:34:36;;;;;;;0.10;0.10;;;;;;;13.22;73.99;99479.19;5076101;28;20050;-64
2023/06/15 00:37:03;;;;;;;0.10;0.10;;;;;;;13.22;74.56;99490.75;5070227;28;20113;-64
2023/06/15 00:39:32;;;;;;;0.10;0.10;;;;;;;13.25;74.28;99489.44;5079788;28;20135;-64
2023/06/15 00:42:01;;;;;;;0.05;0.05;;;;;;;13.29;74.29;99482.53;5072914;28;20052;-64
2023/06/15 00:44:28;;;;;;;0.15;0.10;;;;;;;13.27;74.49;99487.34;5082736;28;20513;-64
2023/06/15 00:46:56;;;;;;;0.08;0.08;;;;;;;13.17;75.14;99498.78;5069489;28;20498;-64
2023/06/15 00:49:25;;;;;;;0.10;0.10;;;;;;;13.08;76.58;99493.06;5095607;28;20077;-64
2023/06/15 00:51:52;;;;;;;0.10;0.10;;;;;;;13.01;76.23;99486.25;5059176;28;20090;-64
2023/06/15 00:54:23;;;;;;;0.13;0.13;;;;;;;13.06;75.88;99492.50;5080710;28;20387;-64
2023/06/15 00:56:50;;;;;;;0.10;0.10;;;;;;;13.01;76.74;99489.75;5071513;28;20376;-64
2023/06/15 00:59:19;;;;;;;0.03;0.03;;;;;;;12.93;77.36;99492.88;5067987;28;20052;-64
2023/06/15 01:01:49;;;;;;;0.13;0.10;;;;;;;12.96;77.50;99487.00;5069788;28;20036;-64
2023/06/15 01:04:17;;;;;;;;;;;;;;;12.98;77.22;99492.94;5073967;28;20059;-64
2023/06/15 01:06:52;;;;;;;0.10;0.10;;;;;;;13.02;77.09;99490.53;5071245;28;19928;-64
2023/06/15 01:09:19;;;;;;;0.10;0.10;;;;;;;12.98;77.41;99489.41;5074659;28;20056;-64
2023/06/15 01:11:50;;;;;;;0.00;0.00;;;;;;;12.91;77.87;99484.25;5071808;28;20541;-64
2023/06/15 01:14:19;;;;;;;0.00;0.00;;;;;;;12.82;78.38;99483.06;5076747;28;20547;-64
2023/06/15 01:16:52;;;;;;;0.20;0.10;;;;;;;12.73;79.20;99477.31;5076689;28;20536;-64
2023/06/15 01:19:29;;;;;;;0.10;0.10;;;;;;;12.85;80.02;99480.66;5079671;28;20582;-64
2023/06/15 01:21:58;;;;;;;0.03;0.03;;;;;;;12.64;79.04;99479.59;5085397;28;20196;-64
2023/06/15 01:24:26;;;;;;;0.10;0.10;;;;;;;12.66;80.28;99480.19;5081425;28;20040;-64
2023/06/15 01:26:57;;;;;;;0.00;0.00;;;;;;;12.58;81.25;99480.63;5086800;28;20110;-64
2023/06/15 01:29:26;;;;;;;0.00;0.00;;;;;;;12.60;79.95;99483.84;5073551;28;20044;-64
2023/06/15 01:31:57;;;;;;;0.10;0.10;;;;;;;12.55;80.94;99485.66;5078375;28;20063;-64
2023/06/15 01:34:25;;;;;;;0.00;0.00;;;;;;;12.52;80.85;99487.78;5077286;28;20051;-64
2023/06/15 01:36:53;;;;;;;0.10;0.10;;;;;;;12.36;80.92;99488.66;5055572;28;20055;-64
2023/06/15 01:39:24;;;;;;;0.10;0.10;;;;;;;12.25;82.10;99487.69;5075098;28;20106;-64
2023/06/15 01:41:51;;;;;;;0.10;0.10;;;;;;;12.20;82.44;99484.91;5079252;28;20135;-64
2023/06/15 01:44:20;;;;;;;0.10;0.10;;;;;;;12.19;83.06;99494.06;5057445;28;20051;-64
2023/06/15 01:46:48;;;;;;;0.08;0.08;;;;;;;12.06;83.47;99492.53;5077495;28;20048;-64
2023/06/15 01:49:18;;;;;;;0.10;0.10;;;;;;;12.02;83.61;99490.56;5077787;28;20518;-64
2023/06/15 01:51:45;;;;;;;0.03;0.03;;;;;;;11.97;84.22;99485.94;5076301;28;20056;-64
2023/06/15 01:54:13;;;;;;;0.32;0.10;;;;;;;11.96;84.63;99495.06;5072975;28;20055;-64
2023/06/15 01:56:40;;;;;;;0.00;0.00;;;;;;;11.90;85.26;99495.22;5079808;28;20043;-65
2023/06/15 01:59:09;;;;;;;0.10;0.10;;;;;;;11.86;84.88;99501.06;5071623;28;20490;-65
2023/06/15 02:01:38;;;;;;;0.20;0.20;;;;;;;11.82;85.23;99493.72;5072148;28;20036;-65
2023/06/15 02:04:05;;;;;;;0.08;0.08;;;;;;;11.79;85.89;99492.34;5081952;28;20105;-65
2023/06/15 02:06:33;;;;;;;0.08;0.08;;;;;;;11.75;87.03;99488.50;5081001;28;20040;-65
2023/06/15 02:09:00;;;;;;;0.10;0.10;;;;;;;11.91;87.75;99478.06;5090944;28;20040;-65
2023/06/15 02:11:28;;;;;;;0.10;0.10;;;;;;;12.01;86.70;99480.91;5077066;28;20117;-64
2023/06/15 02:13:59;;;;;;;0.10;0.10;;;;;;;12.08;86.29;99489.56;5074695;28;20482;-63
2023/06/15 02:16:27;;;;;;;0.00;0.00;;;;;;;12.16;85.22;99481.13;5079267;28;20040;-64
2023/06/15 02:19:00;;;;;;;0.10;0.10;;;;;;;12.20;85.42;99484.91;5058936;28;20410;-65
2023/06/15 02:21:27;;;;;;;0.10;0.10;;;;;;;12.22;84.68;99488.19;5085183;28;20125;-65
2023/06/15 02:23:54;;;;;;;0.10;0.10;;;;;;;12.14;84.36;99482.41;5072863;28;20048;-65
2023/06/15 02:26:24;;;;;;;0.20;0.20;;;;;;;12.00;86.38;99487.31;5077213;28;20067;-66
2023/06/15 02:28:51;;;;;;;0.00;0.00;;;;;;;11.95;85.52;99492.59;5070490;28;20105;-66
2023/06/15 02:31:19;;;;;;;0.10;0.10;;;;;;;11.81;87.31;99484.84;5080682;28;20062;-66
2023/06/15 02:33:47;;;;;;;0.10;0.10;;;;;;;11.87;86.12;99489.25;5077748;28;20052;-65
2023/06/15 02:36:19;;;;;;;0.10;0.10;;;;;;;11.97;85.74;99495.84;5073508;28;20033;-65
2023/06/15 02:38:48;;;;;;;0.08;0.08;;;;;;;11.91;86.00;99496.84;5072304;28;20036;-65
2023/06/15 02:41:15;;;;;;;0.20;0.10;;;;;;;11.85;87.15;99494.03;5082228;28;20412;-66
2023/06/15 02:43:44;;;;;;;0.20;0.20;;;;;;;11.81;87.11;99492.91;5075693;28;20451;-64
2023/06/15 02:46:11;;;;;;;0.10;0.10;;;;;;;11.79;89.33;99494.22;5080139;28;20032;-64
2023/06/15 02:48:38;;;;;;;0.08;0.08;;;;;;;11.82;87.10;99491.03;5078376;28;20053;-64
2023/06/15 02:51:06;;;;;;;0.10;0.10;;;;;;;11.96;87.44;99500.44;5076734;28;20092;-64
2023/06/15 02:53:35;;;;;;;0.00;0.00;;;;;;;11.86;88.11;99503.75;5079102;28;20081;-65
2023/06/15 02:56:03;;;;;;;0.10;0.10;;;;;;;11.82;88.44;99496.41;5074414;28;20073;-64
2023/06/15 02:58:32;;;;;;;0.20;0.20;;;;;;;11.93;86.59;99500.94;5073946;28;20040;-64
2023/06/15 03:01:00;;;;;;;0.00;0.00;;;;;;;11.84;87.22;99502.34;5079466;28;20136;-64
2023/06/15 03:03:43;;;;;;;0.10;0.10;;;;;;;11.99;86.29;99504.50;5073014;28;20257;-64
2023/06/15 03:06:11;;;;;;;0.10;0.10;;;;;;;11.82;87.77;99510.63;5075540;28;20048;-64
2023/06/15 03:08:43;;;;;;;0.10;0.10;;;;;;;11.70;89.28;99504.53;5081350;28;20040;-64
2023/06/15 03:11:19;;;;;;;0.10;0.10;;;;;;;11.87;87.89;99508.06;5076637;28;20119;-65
2023/06/15 03:13:48;;;;;;;0.10;0.10;;;;;;;11.93;86.91;99511.66;5079262;28;20059;-65
2023/06/15 03:16:16;;;;;;;0.10;0.10;;;;;;;11.86;86.92;99516.34;5078924;28;20059;-64
2023/06/15 03:18:46;;;;;;;0.10;0.10;;;;;;;11.82;87.80;99516.00;5074588;28;20090;-64
2023/06/15 03:21:14;;;;;;;0.10;0.10;;;;;;;11.82;88.11;99516.00;5068574;28;20483;-64
2023/06/15 03:23:44;;;;;;;0.25;0.25;;;;;;;11.82;88.06;99513.31;5069484;28;20107;-64
2023/06/15 03:26:12;;;;;;;0.10;0.10;;;;;;;11.73;88.04;99517.47;5070440;28;20151;-64
2023/06/15 03:28:39;;;;;;;0.00;0.00;;;;;;;11.86;87.71;99522.56;5078209;28;20072;-64
2023/06/15 03:31:11;;;;;;;0.00;0.00;;;;;;;12.14;86.01;99523.53;5073358;28;20040;-63
2023/06/15 03:33:39;;;;;;;0.10;0.10;;;;;;;12.06;86.76;99521.28;5056485;28;20073;-65
2023/06/15 03:36:08;;;;;;;0.20;0.20;;;;;;;12.70;83.62;99521.66;5091306;28;20749;-64
2023/06/15 03:38:37;;;;;;;0.10;0.10;;;;;;;13.70;78.81;99524.09;5079030;28;20135;-63
2023/06/15 03:41:06;;;;;;;0.20;0.20;;;;;;;14.14;75.67;99528.50;5074590;28;20036;-65
2023/06/15 03:43:33;;;;;;;0.22;0.22;;;;;;;14.00;75.81;99525.44;5073405;28;20047;-65
2023/06/15 03:46:00;;;;;;;0.10;0.10;;;;;;;13.99;76.47;99527.31;5077313;28;20048;-65
2023/06/15 03:48:28;;;;;;;0.10;0.10;;;;;;;14.20;75.54;99528.31;5069486;28;20032;-65
2023/06/15 03:50:56;;;;;;;0.10;0.10;;;;;;;14.62;72.87;99532.09;5076860;28;20747;-65
2023/06/15 03:53:24;;;;;;;0.20;0.20;;;;;;;15.05;71.31;99532.81;5075365;28;20093;-64
2023/06/15 03:55:51;;;;;;;0.10;0.10;;;;;;;16.53;64.73;99546.50;5076820;28;20039;-64
2023/06/15 03:58:20;;;;;;;0.08;0.08;;;;;;;16.78;63.96;99539.44;5074520;28;20043;-64
2023/06/15 04:00:50;;;;;;;0.10;0.10;;;;;;;17.97;58.80;99545.81;5075910;28;20057;-64
2023/06/15 04:03:18;;;;;;;0.10;0.10;;;;;;;18.20;57.69;99547.81;5072372;28;20275;-64
2023/06/15 04:05:46;;;;;;;0.00;0.00;;;;;;;17.22;58.99;99546.81;5075573;28;20079;-64
2023/06/15 04:08:14;;;;;;;0.15;0.15;;;;;;;18.13;57.29;99550.03;5078180;28;20119;-64
2023/06/15 04:10:41;;;;;;;0.10;0.10;;;;;;;16.77;62.46;99549.41;5077209;28;20082;-64
2023/06/15 04:13:09;;;;;;;0.03;0.03;;;;;;;17.95;59.08;99554.25;5074017;28;20052;-64
2023/06/15 04:15:39;;;;;;;0.00;0.00;;;;;;;19.56;53.43;99553.84;5073344;28;20094;-64
2023/06/15 04:18:07;;;;;;;0.00;0.00;;;;;;;18.95;53.33;99557.38;5067708;28;20347;-64
2023/06/15 04:20:36;;;;;;;0.00;0.00;;;;;;;19.54;52.88;99556.03;5075654;28;20048;-64
2023/06/15 04:23:04;;;;;;;0.10;0.10;;;;;;;20.88;48.69;99560.91;5079779;28;20494;-64
2023/06/15 04:25:35;;;;;;;0.10;0.10;;;;;;;20.54;48.98;99561.25;5093180;28;20620;-64
2023/06/15 04:28:05;;;;;;;0.00;0.00;;;;;;;20.43;48.94;99557.13;5081448;28;20046;-64
2023/06/15 04:30:34;;;;;;;0.10;0.10;;;;;;;20.55;48.88;99564.84;5078194;28;20151;-64
2023/06/15 04:33:04;;;;;;;0.00;0.00;;;;;;;21.00;47.89;99570.53;5072475;28;20055;-65
2023/06/15 04:35:34;;;;;;;0.00;0.00;;;;;;;21.33;47.17;99569.25;5074534;28;20047;-65
2023/06/15 04:38:04;;;;;;;0.00;0.00;;;;;;;22.06;45.78;99565.72;5072010;28;20425;-65
2023/06/15 04:40:31;;;;;;;0.00;0.00;;;;;;;21.15;47.59;99567.47;5076205;28;20571;-65
2023/06/15 04:43:02;;;;;;;0.10;0.10;;;;;;;21.11;47.80;99577.38;5067563;28;20376;-64
2023/06/15 04:45:30;;;;;;;0.00;0.00;;;;;;;21.78;46.68;99575.97;5072785;28;20140;-65
2023/06/15 04:47:59;;;;;;;0.10;0.10;;;;;;;21.34;47.72;99578.25;5074821;28;20147;-65
2023/06/15 04:50:29;;;;;;;0.00;0.00;;;;;;;22.01;46.21;99572.13;5073036;28;20159;-65
2023/06/15 04:52:58;;;;;;;0.00;0.00;;;;;;;22.86;44.13;99572.13;5073907;28;20140;-65
2023/06/15 04:55:25;;;;;;;0.00;0.00;;;;;;;22.75;44.25;99581.75;5084222;28;20055;-63
2023/06/15 04:57:52;;;;;;;0.15;0.10;;;;;;;23.10;43.81;99581.91;5083919;28;20101;-62
2023/06/15 05:00:21;;;;;;;0.00;0.00;;;;;;;22.95;43.78;99580.38;5078785;28;20503;-63
2023/06/15 05:02:57;;;;;;;0.10;0.10;;;;;;;23.96;42.58;99575.75;5077317;28;20102;-62
2023/06/15 05:05:25;;;;;;;0.10;0.10;;;;;;;23.39;43.45;99582.13;5080436;28;20140;-63
2023/06/15 05:07:54;;;;;;;0.00;0.00;;;;;;;23.75;42.94;99575.59;5086111;28;20040;-63
2023/06/15 05:10:21;;;;;;;0.00;0.00;;;;;;;23.71;43.02;99585.53;5079604;28;20507;-63
2023/06/15 05:12:51;;;;;;;0.00;0.00;;;;;;;23.74;42.91;99586.84;5082161;28;20067;-63
2023/06/15 05:15:19;;;;;;;0.00;0.00;;;;;;;24.08;42.65;99588.78;5082132;28;20040;-63
2023/06/15 05:17:47;;;;;;;0.00;0.00;;;;;;;25.72;40.42;99588.47;5083799;28;20109;-63
2023/06/15 05:20:15;;;;;;;0.08;0.08;;;;;;;25.29;40.23;99592.31;5074970;28;20043;-63
2023/06/15 05:22:43;;;;;;;0.00;0.00;;;;;;;25.56;39.88;99594.56;5073746;28;20048;-64
2023/06/15 05:25:12;;;;;;;0.03;0.03;;;;;;;25.90;39.10;99589.94;5079595;28;20537;-64
2023/06/15 05:27:39;;;;;;;;;;;;;;;25.84;38.77;99596.75;5076096;28;20131;-63
2023/06/15 05:30:08;;;;;;;0.10;0.10;;;;;;;26.13;38.78;99600.56;5085295;28;20019;-63
2023/06/15 05:32:38;;;;;;;0.03;0.03;;;;;;;26.09;38.80;99591.41;5085925;28;20040;-64
2023/06/15 05:35:08;;;;;;;0.00;0.00;;;;;;;26.46;38.69;99595.88;5073821;28;20055;-63
2023/06/15 05:37:37;;;;;;;0.10;0.10;;;;;;;27.20;37.81;99590.50;5069377;28;20079;-63
2023/06/15 05:40:06;;;;;;;0.00;0.00;;;;;;;26.71;39.00;99587.72;5077674;28;20048;-64
2023/06/15 05:42:35;;;;;;;;;;;;;;;26.88;38.22;99594.94;5080541;28;20044;-64
2023/06/15 05:45:04;;;;;;;0.00;0.00;;;;;;;27.68;37.52;99594.34;5076122;28;19925;-63
2023/06/15 05:47:31;;;;;;;0.00;0.00;;;;;;;27.53;36.56;99592.28;5079304;28;20044;-64
2023/06/15 05:50:00;;;;;;;0.00;0.00;;;;;;;27.08;36.90;99595.97;5077138;28;20068;-68
2023/06/15 05:52:27;;;;;;;0.00;0.00;;;;;;;27.26;36.63;99599.34;5075766;28;20044;-63
2023/06/15 05:54:55;;;;;;;0.00;0.00;;;;;;;26.94;36.97;99603.78;5074251;28;20036;-64
2023/06/15 05:57:23;;;;;;;0.03;0.03;;;;;;;26.81;37.29;99601.00;5080818;28;20045;-64
2023/06/15 05:59:53;;;;;;;0.17;0.17;;;;;;;28.69;34.48;99605.41;5074636;28;20043;-64
2023/06/15 06:02:23;;;;;;;0.10;0.10;;;;;;;27.73;36.16;99607.84;5073914;28;20040;-64
2023/06/15 06:04:56;;;;;;;0.10;0.10;;;;;;;27.64;35.94;99609.13;5062192;28;20498;-64
2023/06/15 06:07:25;;;;;;;0.10;0.10;;;;;;;27.67;35.99;99609.22;5084457;28;20048;-64
2023/06/15 06:09:52;;;;;;;0.35;0.10;;;;;;;27.60;36.63;99608.22;5083277;28;20499;-64
2023/06/15 06:12:20;;;;;;;0.00;0.00;;;;;;;28.60;35.50;99606.34;5075654;28;20045;-64
2023/06/15 06:14:47;;;;;;;0.15;0.15;;;;;;;27.26;37.05;99600.13;5078122;28;20143;-64
2023/06/15 06:17:16;;;;;;;0.13;0.13;;;;;;;28.57;35.56;99611.78;5078367;28;20490;-64
2023/06/15 06:19:43;;;;;;;0.20;0.20;;;;;;;27.55;36.57;99614.75;5080018;28;20048;-64
2023/06/15 06:22:11;;;;;;;0.10;0.10;;;;;;;27.88;36.42;99614.63;5074768;28;20125;-64
2023/06/15 06:24:38;;;;;;;0.30;0.10;;;;;;;27.71;37.15;99618.41;5073729;28;20047;-64
2023/06/15 06:27:07;;;;;;;0.20;0.17;;;;;;;28.54;35.97;99616.06;5076561;28;20129;-64
2023/06/15 06:29:35;;;;;;;0.10;0.10;;;;;;;28.72;35.19;99621.22;5075682;28;20147;-64
2023/06/15 06:32:02;;;;;;;0.10;0.10;;;;;;;28.15;35.76;99621.25;5080250;28;20040;-64
2023/06/15 06:34:31;;;;;;;0.10;0.10;;;;;;;28.31;35.33;99621.31;5078753;28;20032;-64
2023/06/15 06:36:58;;;;;;;0.08;0.08;;;;;;;27.99;35.75;99623.19;5074809;28;20070;-64
2023/06/15 06:39:26;;;;;;;0.00;0.00;;;;;;;28.89;35.09;99623.66;5081943;28;20048;-64
2023/06/15 06:41:54;;;;;;;0.20;0.20;;;;;;;29.08;34.58;99624.91;5081146;28;20052;-63
2023/06/15 06:44:38;;;;;;;0.05;0.05;;;;;;;27.92;36.31;99620.22;5073423;28;20054;-63
2023/06/15 06:47:06;;;;;;;0.00;0.00;;;;;;;29.61;34.29;99628.13;5083095;28;20097;-63
2023/06/15 06:49:35;;;;;;;0.10;0.10;;;;;;;29.62;34.46;99626.94;5080621;28;20056;-63
2023/06/15 06:52:03;;;;;;;0.40;0.20;;;;;;;28.05;34.96;99630.03;5078126;28;20036;-64
2023/06/15 06:54:32;;;;;;;0.00;0.00;;;;;;;28.17;35.37;99624.47;5077826;28;20064;-65
2023/06/15 06:56:59;;;;;;;0.10;0.10;;;;;;;27.52;36.35;99623.72;5077077;28;20045;-63
2023/06/15 06:59:27;;;;;;;0.03;0.03;;;;;;;27.46;36.61;99625.13;5079989;28;20088;-64
2023/06/15 07:01:54;;;;;;;0.20;0.10;;;;;;;28.48;34.44;99620.25;5075290;28;20048;-65
2023/06/15 07:04:22;;;;;;;0.15;0.10;;;;;;;28.29;35.16;99614.56;5081409;28;20444;-65
2023/06/15 07:06:50;;;;;;;0.10;0.10;;;;;;;26.32;38.05;99628.34;5080652;28;20055;-65
2023/06/15 07:09:17;;;;;;;;;;;;;;;28.48;35.43;99619.41;5077445;28;20060;-63
2023/06/15 07:11:45;;;;;;;0.28;0.10;;;;;;;28.78;35.01;99619.81;5080690;28;19924;-63
2023/06/15 07:14:12;;;;;;;0.00;0.00;;;;;;;29.42;33.34;99618.63;5072614;28;20486;-63
2023/06/15 07:16:40;;;;;;;0.10;0.10;;;;;;;28.71;35.14;99622.41;5082529;28;20039;-65
2023/06/15 07:19:07;;;;;;;0.10;0.10;;;;;;;30.03;33.81;99619.16;5073993;28;20068;-65
2023/06/15 07:21:35;;;;;;;0.30;0.17;;;;;;;29.29;34.31;99619.91;5077515;28;20295;-65
2023/06/15 07:24:04;;;;;;;0.20;0.20;;;;;;;28.10;35.98;99616.00;5078431;28;20554;-65
2023/06/15 07:26:31;;;;;;;0.00;0.00;;;;;;;28.38;35.72;99615.19;5081824;28;20394;-64
2023/06/15 07:28:59;;;;;;;0.00;0.00;;;;;;;27.20;37.24;99617.22;5077232;28;20502;-64
2023/06/15 07:31:26;;;;;;;0.08;0.08;;;;;;;28.44;35.59;99618.50;5070544;28;20050;-65
2023/06/15 07:33:54;;;;;;;0.03;0.03;;;;;;;28.44;34.71;99613.78;5076873;28;20087;-64
2023/06/15 07:36:22;;;;;;;0.00;0.00;;;;;;;27.29;36.52;99615.94;5080262;28;20564;-64
2023/06/15 07:38:52;;;;;;;0.17;0.03;;;;;;;26.70;37.92;99619.09;5075263;28;20040;-64
2023/06/15 07:41:21;;;;;;;0.10;0.10;;;;;;;27.55;36.76;99617.50;5077932;28;20040;-64
2023/06/15 07:43:48;;;;;;;;;;;;;;;27.34;37.23;99617.66;5085753;28;20048;-65
2023/06/15 07:46:16;;;;;;;0.05;0.05;;;;;;;29.39;34.13;99622.09;5072773;28;20301;-64
2023/06/15 07:48:43;;;;;;;0.00;0.00;;;;;;;28.23;35.00;99613.19;5081287;28;20055;-65
2023/06/15 07:51:11;;;;;;;0.00;0.00;;;;;;;27.41;35.77;99611.56;5078151;28;20047;-64
2023/06/15 07:53:39;;;;;;;0.17;0.10;;;;;;;27.90;36.52;99617.78;5077805;28;20152;-64
2023/06/15 07:56:06;;;;;;;0.00;0.00;;;;;;;29.30;33.60;99627.00;5069651;28;20707;-65
2023/06/15 07:58:36;;;;;;;0.22;0.10;;;;;;;27.24;36.25;99623.63;5076462;28;20047;-64
2023/06/15 08:01:03;;;;;;;0.00;0.00;;;;;;;26.55;36.96;99628.78;5075212;28;20116;-64
2023/06/15 08:03:30;;;;;;;0.00;0.00;;;;;;;27.31;35.33;99626.63;5079522;28;20202;-63
2023/06/15 08:05:58;;;;;;;0.00;0.00;;;;;;;26.23;38.20;99633.13;5078075;28;20513;-64
2023/06/15 08:08:28;;;;;;;0.15;0.10;;;;;;;25.55;39.43;99617.63;5077789;28;20048;-64
2023/06/15 08:10:55;;;;;;;0.00;0.00;;;;;;;27.63;35.72;99619.34;5083593;28;20053;-63
2023/06/15 08:13:22;;;;;;;0.00;0.00;;;;;;;26.98;36.54;99626.69;5079518;28;20049;-63
2023/06/15 08:15:52;;;;;;;0.10;0.10;;;;;;;27.23;36.25;99622.00;5075668;28;20047;-63
2023/06/15 08:18:19;;;;;;;0.00;0.00;;;;;;;28.33;34.91;99618.19;5069105;28;20082;-63
2023/06/15 08:20:47;;;;;;;0.00;0.00;;;;;;;27.46;36.27;99612.16;5079212;28;20054;-65
2023/06/15 08:23:15;;;;;;;0.00;0.00;;;;;;;27.09;35.90;99616.84;5076185;28;20048;-63
2023/06/15 08:25:42;;;;;;;0.00;0.00;;;;;;;28.03;34.89;99624.09;5081944;28;20083;-63
2023/06/15 08:28:10;;;;;;;0.00;0.00;;;;;;;26.89;36.39;99613.06;5080274;28;20375;-64
2023/06/15 08:30:37;;;;;;;0.05;0.05;;;;;;;26.13;37.47;99617.84;5076956;28;20036;-64
2023/06/15 08:33:06;;;;;;;0.00;0.00;;;;;;;26.20;37.96;99614.56;5082462;28;20141;-64
2023/06/15 08:35:33;;;;;;;0.00;0.00;;;;;;;26.49;36.95;99621.88;5080641;28;20439;-64
2023/06/15 08:38:02;;;;;;;0.03;0.03;;;;;;;26.39;37.62;99620.34;5081551;28;20037;-65
2023/06/15 08:40:29;;;;;;;0.00;0.00;;;;;;;27.15;35.14;99614.66;5079493;28;20377;-64
2023/06/15 08:42:57;;;;;;;0.00;0.00;;;;;;;26.12;36.87;99613.50;5080531;28;20351;-65
2023/06/15 08:45:24;;;;;;;0.08;0.00;;;;;;;26.12;36.95;99609.97;5082182;28;20139;-64
2023/06/15 08:47:52;;;;;;;0.05;0.05;;;;;;;26.04;37.04;99620.69;5082564;28;20036;-64
2023/06/15 08:50:21;;;;;;;0.10;0.10;;;;;;;25.29;38.27;99615.06;5076781;28;20036;-64
2023/06/15 08:52:48;;;;;;;0.00;0.00;;;;;;;26.27;37.39;99612.06;5082948;28;20047;-63
2023/06/15 08:55:16;;;;;;;0.00;0.00;;;;;;;25.27;37.13;99611.03;5078140;28;20482;-62
2023/06/15 08:57:43;;;;;;;0.00;0.00;;;;;;;25.35;37.57;99615.66;5087388;28;20079;-65
2023/06/15 09:00:12;;;;;;;0.03;0.00;;;;;;;25.60;37.30;99609.19;5082975;28;20076;-64
2023/06/15 09:02:41;;;;;;;0.00;0.00;;;;;;;25.06;37.93;99603.53;5087816;28;20397;-64
2023/06/15 09:05:09;;;;;;;0.25;0.17;;;;;;;26.11;36.81;99600.91;5075333;28;20049;-63
2023/06/15 09:07:38;;;;;;;0.08;0.00;;;;;;;26.77;36.06;99602.84;5078945;28;20047;-63
2023/06/15 09:10:13;;;;;;;0.03;0.03;;;;;;;26.66;35.97;99605.22;5080966;28;20163;-63
2023/06/15 09:12:42;;;;;;;0.00;0.00;;;;;;;25.68;36.96;99603.97;5088244;28;20036;-63
2023/06/15 09:15:12;;;;;;;0.00;0.00;;;;;;;27.16;35.53;99595.06;5081488;28;20037;-63
2023/06/15 09:17:40;;;;;;;;;;;;;;;27.08;35.71;99604.22;5086439;28;20426;-64
2023/06/15 09:20:08;;;;;;;0.00;0.00;;;;;;;25.23;36.95;99601.84;5094534;28;19928;-63
2023/06/15 09:22:43;;;;;;;0.08;0.08;;;;;;;25.76;36.17;99595.69;5077238;28;20131;-63
2023/06/15 09:25:14;;;;;;;0.00;0.00;;;;;;;26.48;35.49;99598.28;5079620;28;20040;-63
2023/06/15 09:27:42;;;;;;;0.00;0.00;;;;;;;24.65;37.90;99602.22;5083434;28;20478;-62
2023/06/15 09:30:13;;;;;;;0.00;0.00;;;;;;;26.22;35.61;99601.28;5079898;28;20055;-64
2023/06/15 09:32:41;;;;;;;0.10;0.10;;;;;;;26.83;34.97;99593.22;5083013;28;20040;-64
2023/06/15 09:35:09;;;;;;;0.00;0.00;;;;;;;27.38;35.13;99590.25;5084443;28;20062;-64
2023/06/15 09:37:37;;;;;;;0.20;0.03;;;;;;;27.65;35.55;99591.47;5082318;28;20057;-64
2023/06/15 09:40:07;;;;;;;0.17;0.00;;;;;;;28.22;34.50;99584.84;5073262;28;20451;-63
2023/06/15 09:42:35;;;;;;;0.00;0.00;;;;;;;28.54;33.47;99582.97;5053512;28;20128;-63
2023/06/15 09:45:03;;;;;;;0.00;0.00;;;;;;;27.65;34.95;99584.00;5084326;28;20044;-64
2023/06/15 09:47:31;;;;;;;0.00;0.00;;;;;;;27.96;33.79;99583.38;5081076;28;20138;-64
2023/06/15 09:49:59;;;;;;;0.00;0.00;;;;;;;29.50;32.10;99593.94;5074585;28;20079;-64
2023/06/15 09:52:26;;;;;;;0.00;0.00;;;;;;;28.02;31.73;99581.16;5077858;28;20049;-64
2023/06/15 09:54:54;;;;;;;0.03;0.00;;;;;;;26.00;34.52;99581.28;5080664;28;20518;-63
2023/06/15 09:57:22;;;;;;;0.05;0.05;;;;;;;25.63;33.27;99591.25;5085265;28;20075;-64
2023/06/15 09:59:51;;;;;;;0.10;0.10;;;;;;;24.56;35.05;99586.94;5073039;28;20131;-63
2023/06/15 10:02:18;;;;;;;0.10;0.00;;;;;;;25.16;34.83;99594.97;5078119;28;20064;-63
2023/06/15 10:04:47;;;;;;;0.00;0.00;;;;;;;24.60;34.27;99585.97;5081690;28;20043;-63
2023/06/15 10:07:14;;;;;;;0.10;0.10;;;;;;;24.75;33.77;99590.91;5076109;28;20044;-64
2023/06/15 10:09:44;;;;;;;0.05;0.05;;;;;;;25.57;33.76;99593.41;5070792;28;20760;-66
2023/06/15 10:12:14;;;;;;;0.00;0.00;;;;;;;25.65;32.55;99586.25;5073679;28;20356;-64
2023/06/15 10:14:45;;;;;;;;;;;;;;;25.09;34.33;99588.34;5082131;28;20117;-64
2023/06/15 10:17:13;;;;;;;0.00;0.00;;;;;;;24.37;33.91;99590.03;5075278;28;20403;-64
2023/06/15 10:19:43;;;;;;;0.00;0.00;;;;;;;25.20;33.74;99586.06;5081642;28;20135;-64
2023/06/15 10:22:15;;;;;;;0.00;0.00;;;;;;;24.65;33.39;99582.25;5078318;28;20385;-64
2023/06/15 10:24:43;;;;;;;0.00;0.00;;;;;;;24.35;32.81;99582.13;5076567;28;20646;-64
2023/06/15 10:27:11;;;;;;;0.00;0.00;;;;;;;25.10;33.30;99582.53;5074690;28;20048;-63
2023/06/15 10:29:42;;;;;;;0.22;0.00;;;;;;;24.59;32.34;99586.28;5079823;28;20391;-63
2023/06/15 10:32:13;;;;;;;0.00;0.00;;;;;;;25.08;32.97;99581.25;5079835;28;20079;-65
2023/06/15 10:34:43;;;;;;;0.00;0.00;;;;;;;25.12;32.20;99583.00;5085349;28;20040;-63
2023/06/15 10:37:15;;;;;;;0.00;0.00;;;;;;;24.89;32.14;99579.75;5076879;28;20557;-63
2023/06/15 10:39:44;;;;;;;0.15;0.08;;;;;;;25.30;31.68;99574.72;5072709;28;20468;-62
2023/06/15 10:42:13;;;;;;;0.00;0.00;;;;;;;25.68;31.15;99585.56;5076111;28;20163;-62
2023/06/15 10:44:41;;;;;;;0.00;0.00;;;;;;;24.96;31.08;99568.22;5082940;28;20059;-62
2023/06/15 10:47:08;;;;;;;0.00;0.00;;;;;;;25.01;32.03;99584.53;5075890;28;20093;-62
2023/06/15 10:49:37;;;;;;;0.00;0.00;;;;;;;24.73;31.64;99582.19;5079920;28;20040;-65
2023/06/15 10:52:05;;;;;;;0.00;0.00;;;;;;;25.10;30.71;99578.97;5076567;28;20544;-62
2023/06/15 10:54:33;;;;;;;0.00;0.00;;;;;;;24.94;32.33;99576.00;5070771;28;20075;-62
2023/06/15 10:57:00;;;;;;;0.00;0.00;;;;;;;24.32;33.15;99564.41;5074303;28;20123;-64
2023/06/15 10:59:42;;;;;;;0.00;0.00;;;;;;;25.01;32.91;99564.50;5080061;28;20041;-64
2023/06/15 11:02:47;;;;;;;0.08;0.08;;;;;;;25.83;33.28;99560.28;5080333;28;20064;-65
2023/06/15 11:05:19;;;;;;;0.00;0.00;;;;;;;26.31;32.24;99565.47;5077043;28;20458;-64
2023/06/15 11:07:49;;;;;;;0.15;0.08;;;;;;;25.45;32.49;99568.63;5076660;28;20036;-64
2023/06/15 11:10:17;;;;;;;0.00;0.00;;;;;;;25.65;32.36;99560.75;5082506;28;20048;-64
2023/06/15 11:12:46;;;;;;;0.00;0.00;;;;;;;25.96;31.48;99561.16;5081087;28;20048;-64
2023/06/15 11:15:14;;;;;;;0.00;0.00;;;;;;;25.52;32.14;99563.41;5076809;28;20356;-64
2023/06/15 11:17:54;;;;;;;0.00;0.00;;;;;;;24.95;32.15;99555.66;5080182;28;20130;-64
2023/06/15 11:20:59;;;;;;;0.00;0.00;;;;;;;25.10;32.11;99557.84;5073753;28;20158;-64
2023/06/15 11:23:29;;;;;;;0.00;0.00;;;;;;;25.32;32.22;99561.47;5079990;28;20482;-64
2023/06/15 11:25:57;;;;;;;0.00;0.00;;;;;;;26.32;32.37;99556.13;5073228;28;20060;-63
2023/06/15 11:28:25;;;;;;;0.13;0.00;;;;;;;25.15;31.99;99554.91;5074647;28;20143;-63
2023/06/15 11:30:53;;;;;;;0.05;0.00;;;;;;;25.88;31.84;99551.03;5073630;28;20524;-64
2023/06/15 11:33:26;;;;;;;0.10;0.00;;;;;;;25.40;31.90;99569.63;5074963;28;20058;-64
2023/06/15 11:35:54;;;;;;;0.10;0.10;;;;;;;25.42;32.09;99557.53;5073070;28;20060;-63
2023/06/15 11:38:25;;;;;;;0.00;0.00;;;;;;;26.54;32.04;99535.69;5077839;28;20535;-64
2023/06/15 11:40:53;;;;;;;0.00;0.00;;;;;;;26.34;31.60;99546.38;5082797;28;20040;-63
2023/06/15 11:43:20;;;;;;;0.00;0.00;;;;;;;27.16;31.10;99539.22;5075823;28;20559;-63